createdAt,value
2017-07-14T00:00:38.734Z,10.90
2017-07-14T00:03:06.258Z,10.90
2017-07-14T00:05:33.784Z,10.90
2017-07-14T00:08:01.328Z,10.80
2017-07-14T00:10:28.854Z,10.80
2017-07-14T00:12:57.168Z,10.80
2017-07-14T00:15:24.836Z,10.80
2017-07-14T00:17:52.362Z,10.80
2017-07-14T00:20:19.886Z,10.90
2017-07-14T00:22:47.433Z,10.90
2017-07-14T00:25:14.986Z,10.80
2017-07-14T00:27:43.384Z,10.80
2017-07-14T00:30:10.921Z,10.80
2017-07-14T00:32:38.441Z,10.70
2017-07-14T00:35:05.957Z,10.70
2017-07-14T00:37:33.498Z,10.60
2017-07-14T00:40:01.145Z,10.60
2017-07-14T00:42:28.671Z,10.50
2017-07-14T00:44:57.093Z,10.50
2017-07-14T00:47:24.746Z,10.50
2017-07-14T00:49:52.314Z,10.50
2017-07-14T00:52:19.979Z,10.50
2017-07-14T00:54:47.510Z,10.40
2017-07-14T00:57:15.035Z,10.40
2017-07-14T00:59:43.362Z,10.40
2017-07-14T01:02:10.931Z,10.40
2017-07-14T01:04:38.458Z,10.40
2017-07-14T01:07:06.147Z,10.40
2017-07-14T01:09:33.668Z,10.40
2017-07-14T01:12:01.958Z,10.30
2017-07-14T01:14:29.504Z,10.30
2017-07-14T01:16:57.833Z,10.30
2017-07-14T01:19:25.362Z,10.30
2017-07-14T01:21:52.906Z,10.30
2017-07-14T01:24:20.506Z,10.30
2017-07-14T01:26:48.025Z,10.30
2017-07-14T01:29:16.436Z,10.40
2017-07-14T01:31:44.844Z,10.30
2017-07-14T01:34:12.372Z,10.40
2017-07-14T01:36:39.909Z,10.40
2017-07-14T01:39:07.430Z,10.50
2017-07-14T01:41:34.951Z,10.50
2017-07-14T01:44:02.510Z,10.60
2017-07-14T01:46:30.038Z,10.60
2017-07-14T01:48:58.450Z,10.60
2017-07-14T01:51:26.014Z,10.60
2017-07-14T01:53:53.535Z,10.60
2017-07-14T01:56:21.845Z,10.70
2017-07-14T01:58:49.406Z,10.70
2017-07-14T02:01:17.608Z,10.80
2017-07-14T02:03:45.136Z,10.90
2017-07-14T02:06:12.911Z,10.90
2017-07-14T02:08:40.443Z,11.00
2017-07-14T02:11:07.961Z,11.10
2017-07-14T02:13:35.591Z,11.10
2017-07-14T02:16:03.117Z,11.10
2017-07-14T02:18:30.640Z,11.10
2017-07-14T02:20:58.267Z,11.20
2017-07-14T02:23:25.794Z,11.20
2017-07-14T02:25:53.314Z,11.30
2017-07-14T02:28:20.858Z,11.30
2017-07-14T02:30:48.400Z,11.20
2017-07-14T02:33:15.958Z,11.10
2017-07-14T02:35:43.570Z,11.10
2017-07-14T02:38:11.098Z,11.10
2017-07-14T02:40:38.642Z,11.10
2017-07-14T02:43:06.202Z,11.10
2017-07-14T02:45:33.859Z,11.10
2017-07-14T02:48:01.421Z,11.20
2017-07-14T02:50:28.983Z,11.20
2017-07-14T02:52:56.522Z,11.20
2017-07-14T02:55:24.054Z,11.30
2017-07-14T02:57:52.362Z,11.30
2017-07-14T03:00:19.926Z,11.30
2017-07-14T03:02:47.470Z,11.40
2017-07-14T03:05:15.013Z,11.40
2017-07-14T03:07:43.337Z,11.50
2017-07-14T03:10:10.853Z,11.50
2017-07-14T03:12:39.269Z,11.60
2017-07-14T03:15:06.793Z,11.60
2017-07-14T03:17:35.080Z,11.60
2017-07-14T03:20:02.619Z,11.60
2017-07-14T03:22:30.942Z,11.70
2017-07-14T03:24:58.510Z,11.70
2017-07-14T03:27:26.052Z,11.60
2017-07-14T03:29:53.611Z,11.60
2017-07-14T03:32:21.137Z,11.60
2017-07-14T03:34:49.458Z,11.50
2017-07-14T03:37:17.886Z,11.50
2017-07-14T03:39:45.403Z,11.50
2017-07-14T03:42:12.955Z,11.40
2017-07-14T03:44:40.485Z,11.50
2017-07-14T03:47:08.082Z,11.50
2017-07-14T03:49:35.627Z,11.60
2017-07-14T03:52:03.153Z,11.70
2017-07-14T03:54:31.454Z,11.80
2017-07-14T03:56:58.996Z,11.80
2017-07-14T03:59:27.285Z,12.00
2017-07-14T04:01:54.824Z,12.00
2017-07-14T04:04:23.245Z,12.10
2017-07-14T04:06:50.810Z,12.10
2017-07-14T04:09:18.334Z,12.20
2017-07-14T04:11:47.397Z,12.20
2017-07-14T04:14:15.142Z,12.10
2017-07-14T04:16:42.663Z,12.20
2017-07-14T04:19:10.203Z,12.20
2017-07-14T04:21:38.526Z,12.20
2017-07-14T04:24:06.082Z,12.20
2017-07-14T04:26:33.642Z,12.30
2017-07-14T04:29:01.157Z,12.30
2017-07-14T04:31:29.482Z,12.50
2017-07-14T04:33:57.043Z,12.40
2017-07-14T04:36:24.580Z,12.50
2017-07-14T04:38:52.255Z,12.70
2017-07-14T04:41:19.822Z,12.80
2017-07-14T04:43:47.388Z,12.90
2017-07-14T04:46:14.914Z,12.90
2017-07-14T04:48:42.503Z,13.00
2017-07-14T04:51:10.062Z,13.10
2017-07-14T04:53:37.584Z,13.20
2017-07-14T04:56:05.131Z,13.20
2017-07-14T04:58:33.422Z,13.30
2017-07-14T05:01:01.015Z,13.30
2017-07-14T05:03:28.583Z,13.40
2017-07-14T05:05:56.104Z,13.50
2017-07-14T05:08:23.927Z,13.60
2017-07-14T05:10:51.563Z,13.60
2017-07-14T05:13:19.122Z,13.70
2017-07-14T05:15:46.678Z,13.80
2017-07-14T05:18:14.219Z,14.00
2017-07-14T05:20:41.900Z,14.00
2017-07-14T05:23:09.417Z,14.10
2017-07-14T05:25:37.733Z,14.30
2017-07-14T05:28:05.396Z,14.20
2017-07-14T05:30:32.922Z,14.30
2017-07-14T05:33:01.238Z,14.30
2017-07-14T05:35:29.110Z,14.30
2017-07-14T05:37:56.638Z,14.30
2017-07-14T05:40:24.179Z,14.30
2017-07-14T05:42:52.483Z,14.30
2017-07-14T05:45:20.067Z,14.30
2017-07-14T05:47:47.626Z,14.30
2017-07-14T05:50:15.170Z,14.40
2017-07-14T05:52:42.738Z,14.50
2017-07-14T05:55:10.398Z,14.60
2017-07-14T05:57:37.962Z,14.70
2017-07-14T06:00:05.504Z,14.80
2017-07-14T06:02:33.046Z,14.70
2017-07-14T06:05:01.352Z,14.60
2017-07-14T06:07:28.919Z,14.60
2017-07-14T06:09:56.463Z,14.40
2017-07-14T06:12:24.035Z,14.30
2017-07-14T06:14:51.564Z,14.20
2017-07-14T06:17:19.107Z,14.10
2017-07-14T06:19:47.403Z,14.10
2017-07-14T06:22:14.994Z,14.10
2017-07-14T06:24:42.539Z,14.20
2017-07-14T06:27:10.115Z,14.30
2017-07-14T06:29:37.639Z,14.50
2017-07-14T06:32:05.949Z,15.00
2017-07-14T06:34:33.482Z,15.00
2017-07-14T06:37:01.014Z,15.30
2017-07-14T06:39:28.558Z,15.40
2017-07-14T06:41:56.082Z,15.50
2017-07-14T06:44:23.610Z,15.60
2017-07-14T06:46:51.998Z,15.40
2017-07-14T06:49:19.583Z,15.40
2017-07-14T06:51:47.115Z,15.10
2017-07-14T06:54:14.654Z,15.00
2017-07-14T06:56:42.978Z,15.00
2017-07-14T06:59:10.640Z,15.00
2017-07-14T07:01:38.202Z,15.00
2017-07-14T07:04:05.727Z,15.00
2017-07-14T07:06:34.035Z,15.00
2017-07-14T07:09:01.601Z,15.10
2017-07-14T07:11:29.162Z,15.10
2017-07-14T07:13:56.686Z,15.20
2017-07-14T07:16:24.281Z,15.30
2017-07-14T07:18:51.836Z,15.30
2017-07-14T07:21:19.354Z,15.50
2017-07-14T07:23:47.662Z,15.60
2017-07-14T07:26:15.237Z,15.50
2017-07-14T07:28:42.795Z,15.60
2017-07-14T07:31:10.355Z,15.70
2017-07-14T07:33:37.916Z,15.70
2017-07-14T07:36:05.440Z,15.60
2017-07-14T07:38:33.132Z,15.60
2017-07-14T07:41:00.694Z,15.60
2017-07-14T07:43:28.214Z,15.70
2017-07-14T07:45:56.522Z,16.00
2017-07-14T07:48:29.742Z,16.00
2017-07-14T07:50:57.282Z,16.20
2017-07-14T07:53:24.811Z,16.40
2017-07-14T07:55:52.502Z,16.60
2017-07-14T07:58:20.042Z,16.80
2017-07-14T08:00:47.747Z,17.00
2017-07-14T08:03:18.234Z,17.20
2017-07-14T08:05:45.822Z,17.40
2017-07-14T08:08:13.346Z,17.70
2017-07-14T08:10:40.947Z,18.00
2017-07-14T08:13:08.596Z,18.10
2017-07-14T08:15:36.122Z,18.30
2017-07-14T08:18:04.411Z,18.80
2017-07-14T08:20:31.960Z,18.80
2017-07-14T08:23:00.276Z,18.70
2017-07-14T08:25:27.807Z,18.70
2017-07-14T08:27:55.345Z,18.80
2017-07-14T08:30:23.634Z,19.40
2017-07-14T08:32:51.169Z,19.30
2017-07-14T08:35:19.002Z,19.00
2017-07-14T08:37:46.549Z,19.20
2017-07-14T08:40:14.077Z,19.60
2017-07-14T08:42:42.382Z,20.10
2017-07-14T08:45:09.956Z,20.10
2017-07-14T08:47:37.477Z,20.10
2017-07-14T08:50:05.020Z,19.90
2017-07-14T08:52:33.342Z,19.50
2017-07-14T08:55:00.907Z,19.50
2017-07-14T08:57:28.447Z,19.10
2017-07-14T08:59:55.976Z,19.20
2017-07-14T09:02:24.262Z,19.30
2017-07-14T09:04:52.575Z,19.40
2017-07-14T09:07:20.134Z,19.40
2017-07-14T09:09:47.654Z,19.60
2017-07-14T09:12:15.962Z,20.00
2017-07-14T09:14:43.489Z,19.90
2017-07-14T09:17:11.779Z,20.20
2017-07-14T09:19:39.334Z,20.10
2017-07-14T09:22:07.631Z,20.90
2017-07-14T09:24:36.030Z,20.90
2017-07-14T09:27:03.574Z,20.90
2017-07-14T09:29:31.153Z,20.90
2017-07-14T09:31:58.711Z,20.70
2017-07-14T09:34:26.364Z,20.30
2017-07-14T09:36:53.885Z,20.50
2017-07-14T09:39:22.198Z,20.40
2017-07-14T09:41:49.767Z,20.40
2017-07-14T09:44:17.347Z,20.80
2017-07-14T09:46:44.875Z,21.50
2017-07-14T09:49:12.445Z,21.60
2017-07-14T09:51:40.002Z,22.00
2017-07-14T09:54:07.567Z,22.30
2017-07-14T09:56:35.119Z,22.90
2017-07-14T09:59:02.680Z,23.10
2017-07-14T10:01:30.250Z,22.90
2017-07-14T10:03:57.814Z,22.60
2017-07-14T10:06:25.343Z,22.10
2017-07-14T10:08:52.922Z,22.10
2017-07-14T10:11:20.470Z,21.80
2017-07-14T10:13:48.000Z,22.00
2017-07-14T10:16:16.296Z,22.10
2017-07-14T10:18:43.854Z,22.10
2017-07-14T10:21:11.386Z,21.90
2017-07-14T10:23:39.709Z,22.60
2017-07-14T10:26:07.270Z,22.60
2017-07-14T10:28:34.839Z,22.50
2017-07-14T10:31:02.395Z,22.60
2017-07-14T10:33:30.042Z,22.40
2017-07-14T10:35:57.574Z,22.60
2017-07-14T10:38:25.891Z,22.90
2017-07-14T10:40:53.435Z,22.90
2017-07-14T10:43:22.523Z,23.40
2017-07-14T10:45:50.045Z,23.50
2017-07-14T10:48:20.975Z,23.40
2017-07-14T10:50:50.136Z,23.30
2017-07-14T10:53:19.451Z,23.70
2017-07-14T10:55:56.882Z,24.10
2017-07-14T10:58:27.343Z,24.60
2017-07-14T11:00:56.514Z,25.10
2017-07-14T11:03:24.874Z,25.30
2017-07-14T11:05:52.495Z,25.70
2017-07-14T11:08:20.942Z,26.10
2017-07-14T11:10:48.542Z,27.00
2017-07-14T11:13:16.127Z,27.70
2017-07-14T11:15:43.675Z,27.30
2017-07-14T11:18:11.221Z,25.90
2017-07-14T11:20:39.666Z,25.30
2017-07-14T11:23:07.189Z,24.40
2017-07-14T11:25:34.881Z,24.40
2017-07-14T11:28:02.401Z,24.10
2017-07-14T11:30:29.930Z,23.90
2017-07-14T11:32:57.478Z,23.80
2017-07-14T11:35:25.268Z,23.50
2017-07-14T11:37:52.790Z,23.90
2017-07-14T11:40:20.342Z,24.10
2017-07-14T11:42:47.880Z,24.30
2017-07-14T11:45:15.520Z,24.80
2017-07-14T11:47:43.169Z,25.00
2017-07-14T11:50:10.721Z,26.70
2017-07-14T11:52:38.240Z,28.40
2017-07-14T11:55:06.556Z,31.20
2017-07-14T11:57:36.830Z,31.10
2017-07-14T12:00:04.966Z,30.50
2017-07-14T12:02:32.519Z,29.70
2017-07-14T12:05:00.046Z,28.50
2017-07-14T12:10:20.782Z,25.50
2017-07-14T12:12:49.071Z,24.70
2017-07-14T12:15:17.553Z,24.10
2017-07-14T12:17:45.118Z,24.10
2017-07-14T12:20:12.649Z,24.30
2017-07-14T12:22:40.229Z,24.10
2017-07-14T12:25:08.925Z,24.10
2017-07-14T12:27:36.459Z,23.70
2017-07-14T12:30:03.986Z,23.80
2017-07-14T12:32:32.314Z,23.70
2017-07-14T12:34:59.842Z,23.70
2017-07-14T12:37:27.534Z,23.80
2017-07-14T12:39:55.082Z,23.60
2017-07-14T12:42:26.415Z,23.50
2017-07-14T12:44:53.937Z,23.40
2017-07-14T12:47:21.574Z,23.00
2017-07-14T12:49:49.506Z,22.80
2017-07-14T12:52:17.204Z,22.80
2017-07-14T12:54:45.962Z,22.40
2017-07-14T12:57:13.490Z,22.20
2017-07-14T12:59:41.013Z,22.10
2017-07-14T13:02:10.935Z,22.00
2017-07-14T13:04:44.645Z,21.70
2017-07-14T13:07:12.487Z,21.60
2017-07-14T13:09:43.909Z,21.50
2017-07-14T13:12:11.597Z,21.50
2017-07-14T13:14:39.148Z,21.40
2017-07-14T13:17:06.683Z,21.50
2017-07-14T13:19:34.975Z,21.50
2017-07-14T13:22:02.574Z,21.50
2017-07-14T13:24:30.111Z,21.50
2017-07-14T13:26:57.671Z,21.50
2017-07-14T13:29:25.218Z,21.50
2017-07-14T13:31:52.789Z,21.60
2017-07-14T13:34:20.315Z,21.70
2017-07-14T13:36:48.622Z,22.00
2017-07-14T13:39:16.145Z,22.00
2017-07-14T13:41:44.779Z,22.90
2017-07-14T13:44:12.327Z,22.90
2017-07-14T13:46:40.312Z,23.20
2017-07-14T13:49:07.840Z,23.30
2017-07-14T13:51:35.435Z,23.20
2017-07-14T13:54:02.976Z,23.30
2017-07-14T13:56:34.213Z,23.60
2017-07-14T13:59:01.757Z,24.10
2017-07-14T14:01:29.341Z,25.70
2017-07-14T14:03:56.904Z,26.50
2017-07-14T14:06:24.447Z,26.20
2017-07-14T14:08:51.967Z,26.20
2017-07-14T14:11:19.489Z,26.40
2017-07-14T14:13:47.031Z,26.40
2017-07-14T14:16:14.558Z,27.80
2017-07-14T14:18:42.855Z,34.50
2017-07-14T14:21:10.406Z,34.40
2017-07-14T14:23:37.938Z,36.00
2017-07-14T14:26:05.475Z,36.90
2017-07-14T14:28:33.118Z,37.00
2017-07-14T14:31:00.670Z,37.60
2017-07-14T14:33:28.198Z,38.90
2017-07-14T14:35:55.807Z,38.80
2017-07-14T14:38:23.341Z,38.40
2017-07-14T14:40:50.883Z,37.60
2017-07-14T14:43:18.570Z,39.20
2017-07-14T14:45:46.094Z,39.20
2017-07-14T14:48:14.383Z,35.30
2017-07-14T14:50:41.952Z,35.20
2017-07-14T14:53:09.625Z,33.00
2017-07-14T14:55:37.193Z,32.20
2017-07-14T14:58:04.754Z,31.10
2017-07-14T15:00:32.278Z,30.90
2017-07-14T15:02:59.866Z,30.50
2017-07-14T15:05:27.431Z,31.20
2017-07-14T15:07:54.953Z,29.70
2017-07-14T15:10:22.562Z,29.00
2017-07-14T15:12:50.205Z,28.30
2017-07-14T15:15:17.723Z,27.00
2017-07-14T15:17:46.027Z,25.80
2017-07-14T15:20:14.363Z,25.70
2017-07-14T15:22:41.990Z,25.80
2017-07-14T15:25:09.643Z,25.00
2017-07-14T15:27:37.186Z,24.70
2017-07-14T15:30:04.763Z,24.60
2017-07-14T15:32:32.323Z,24.40
2017-07-14T15:34:59.887Z,24.10
2017-07-14T15:37:27.443Z,24.20
2017-07-14T15:39:55.221Z,24.10
2017-07-14T15:42:22.867Z,24.10
2017-07-14T15:44:50.427Z,24.10
2017-07-14T15:47:18.091Z,24.10
2017-07-14T15:49:45.770Z,23.90
2017-07-14T15:52:13.323Z,23.80
2017-07-14T15:54:40.859Z,23.70
2017-07-14T15:57:08.399Z,23.60
2017-07-14T15:59:36.714Z,23.10
2017-07-14T16:02:04.234Z,23.10
2017-07-14T16:04:31.775Z,23.10
2017-07-14T16:06:59.303Z,23.00
2017-07-14T16:09:26.827Z,23.00
2017-07-14T16:11:54.406Z,23.10
2017-07-14T16:14:21.970Z,23.10
2017-07-14T16:16:49.843Z,23.00
2017-07-14T16:19:17.399Z,23.00
2017-07-14T16:21:44.955Z,23.00
2017-07-14T16:24:12.518Z,23.00
2017-07-14T16:26:40.602Z,22.90
2017-07-14T16:29:08.148Z,22.80
2017-07-14T16:31:35.713Z,22.60
2017-07-14T16:34:03.264Z,22.60
2017-07-14T16:36:30.830Z,22.50
2017-07-14T16:38:58.379Z,22.40
2017-07-14T16:41:25.943Z,22.40
2017-07-14T16:43:53.503Z,22.30
2017-07-14T16:46:21.039Z,22.20
2017-07-14T16:48:48.622Z,22.20
2017-07-14T16:51:16.151Z,22.10
2017-07-14T16:53:43.686Z,22.10
2017-07-14T16:56:11.401Z,22.00
2017-07-14T16:58:38.929Z,21.90
2017-07-14T17:01:06.457Z,21.70
2017-07-14T17:03:34.189Z,21.60
2017-07-14T17:06:01.764Z,21.50
2017-07-14T17:08:29.399Z,21.40
2017-07-14T17:10:56.967Z,21.30
2017-07-14T17:13:24.503Z,21.20
2017-07-14T17:15:52.030Z,21.10
2017-07-14T17:18:20.461Z,21.00
2017-07-14T17:20:48.003Z,21.00
2017-07-14T17:23:15.585Z,20.80
2017-07-14T17:25:43.239Z,20.70
2017-07-14T17:28:10.761Z,20.60
2017-07-14T17:30:39.401Z,20.20
2017-07-14T17:33:06.942Z,20.10
2017-07-14T17:35:34.467Z,19.90
2017-07-14T17:38:02.881Z,19.30
2017-07-14T17:40:30.455Z,19.30
2017-07-14T17:42:57.975Z,18.90
2017-07-14T17:45:25.578Z,18.00
2017-07-14T17:47:53.226Z,17.50
2017-07-14T17:50:20.762Z,16.80
2017-07-14T17:52:48.400Z,16.30
2017-07-14T17:55:16.729Z,15.60
2017-07-14T17:57:44.294Z,15.60
2017-07-14T18:00:11.842Z,15.30
2017-07-14T18:02:39.498Z,15.20
2017-07-14T18:05:07.094Z,15.00
2017-07-14T18:07:34.738Z,14.90
2017-07-14T18:10:02.300Z,14.70
2017-07-14T18:12:29.840Z,14.70
2017-07-14T18:14:57.402Z,14.70
2017-07-14T18:17:24.962Z,14.80
2017-07-14T18:19:52.523Z,14.80
2017-07-14T18:22:20.049Z,14.80
2017-07-14T18:24:47.598Z,14.90
2017-07-14T18:27:15.923Z,14.80
2017-07-14T18:29:43.573Z,14.80
2017-07-14T18:32:11.145Z,14.90
2017-07-14T18:34:38.706Z,14.80
2017-07-14T18:37:06.857Z,14.70
2017-07-14T18:39:34.403Z,14.60
2017-07-14T18:42:01.939Z,14.50
2017-07-14T18:44:30.228Z,14.40
2017-07-14T18:46:58.639Z,14.30
2017-07-14T18:49:26.169Z,14.30
2017-07-14T18:51:54.795Z,14.20
2017-07-14T18:54:22.447Z,14.10
2017-07-14T18:56:49.979Z,14.00
2017-07-14T18:59:17.519Z,13.90
2017-07-14T19:01:45.835Z,13.90
2017-07-14T19:04:13.501Z,13.90
2017-07-14T19:06:41.022Z,13.80
2017-07-14T19:09:09.334Z,13.60
2017-07-14T19:11:36.864Z,13.60
2017-07-14T19:14:05.154Z,13.40
2017-07-14T19:16:32.701Z,13.40
2017-07-14T19:19:01.033Z,13.40
2017-07-14T19:21:28.574Z,13.30
2017-07-14T19:23:56.131Z,13.20
2017-07-14T19:26:23.695Z,13.10
2017-07-14T19:28:51.256Z,13.10
2017-07-14T19:31:18.798Z,13.10
2017-07-14T19:33:46.325Z,13.20
2017-07-14T19:36:14.645Z,13.40
2017-07-14T19:38:42.206Z,13.40
2017-07-14T19:41:09.771Z,13.50
2017-07-14T19:43:37.295Z,13.50
2017-07-14T19:46:04.905Z,13.60
2017-07-14T19:48:32.427Z,13.60
2017-07-14T19:50:59.973Z,13.60
2017-07-14T19:53:27.568Z,13.60
2017-07-14T19:55:55.107Z,13.60
2017-07-14T19:58:22.630Z,13.70
2017-07-14T20:00:50.962Z,13.70
2017-07-14T20:03:18.490Z,13.70
2017-07-14T20:05:46.019Z,13.70
2017-07-14T20:08:13.562Z,13.60
2017-07-14T20:10:41.317Z,13.70
2017-07-14T20:13:08.858Z,13.60
2017-07-14T20:15:36.411Z,13.60
2017-07-14T20:18:04.456Z,13.60
2017-07-14T20:20:32.785Z,13.50
2017-07-14T20:23:00.337Z,13.50
2017-07-14T20:25:27.886Z,13.50
2017-07-14T20:27:55.519Z,13.50
2017-07-14T20:30:23.059Z,13.50
2017-07-14T20:32:51.357Z,13.50
2017-07-14T20:35:18.880Z,13.50
2017-07-14T20:37:47.206Z,13.50
2017-07-14T20:40:14.749Z,13.50
2017-07-14T20:42:42.283Z,13.50
2017-07-14T20:45:09.825Z,13.50
2017-07-14T20:47:37.347Z,13.50
2017-07-14T20:50:04.915Z,13.50
2017-07-14T20:52:32.481Z,13.40
2017-07-14T20:55:00.039Z,13.40
2017-07-14T20:57:27.573Z,13.40
2017-07-14T20:59:55.251Z,13.30
2017-07-14T21:02:22.775Z,13.30
2017-07-14T21:04:51.091Z,13.20
2017-07-14T21:07:18.647Z,13.20
2017-07-14T21:09:46.175Z,13.10
2017-07-14T21:12:13.766Z,13.10
2017-07-14T21:14:41.315Z,13.10
2017-07-14T21:17:08.843Z,13.10
2017-07-14T21:19:37.134Z,13.20
2017-07-14T21:22:04.734Z,13.10
2017-07-14T21:24:32.281Z,13.10
2017-07-14T21:26:59.799Z,13.20
2017-07-14T21:29:28.117Z,13.20
2017-07-14T21:31:56.150Z,13.10
2017-07-14T21:34:24.442Z,13.10
2017-07-14T21:36:52.126Z,13.10
2017-07-14T21:39:19.650Z,13.00
2017-07-14T21:41:47.934Z,12.90
2017-07-14T21:44:15.486Z,12.90
2017-07-14T21:46:43.769Z,12.90
2017-07-14T21:49:11.298Z,12.90
2017-07-14T21:51:38.923Z,12.90
2017-07-14T21:54:06.473Z,12.90
2017-07-14T21:56:34.041Z,12.80
2017-07-14T21:59:01.586Z,12.70
2017-07-14T22:01:29.157Z,12.70
2017-07-14T22:03:56.683Z,12.60
2017-07-14T22:06:24.234Z,12.50
2017-07-14T22:08:52.653Z,12.30
2017-07-14T22:11:20.211Z,12.30
2017-07-14T22:13:47.775Z,12.30
2017-07-14T22:16:15.343Z,12.20
2017-07-14T22:18:42.871Z,12.20
2017-07-14T22:21:10.419Z,12.20
2017-07-14T22:23:37.948Z,12.20
2017-07-14T22:26:05.474Z,12.20
2017-07-14T22:28:33.027Z,12.20
2017-07-14T22:31:00.595Z,12.20
2017-07-14T22:33:28.155Z,12.20
2017-07-14T22:35:55.818Z,12.10
2017-07-14T22:38:23.366Z,12.10
2017-07-14T22:40:50.886Z,12.10
2017-07-14T22:43:19.203Z,12.00
2017-07-14T22:45:46.733Z,12.00
2017-07-14T22:48:14.255Z,12.00
2017-07-14T22:50:41.875Z,12.00
2017-07-14T22:53:09.443Z,12.00
2017-07-14T22:55:36.960Z,12.00
2017-07-14T22:58:05.372Z,12.00
2017-07-14T23:00:32.891Z,12.00
2017-07-14T23:03:01.311Z,12.00
2017-07-14T23:05:28.871Z,12.00
2017-07-14T23:07:56.438Z,12.10
2017-07-14T23:10:23.994Z,12.10
2017-07-14T23:12:51.542Z,12.10
2017-07-14T23:15:19.071Z,12.10
2017-07-14T23:17:47.406Z,12.20
2017-07-14T23:20:14.950Z,12.10
2017-07-14T23:22:42.477Z,12.20
2017-07-14T23:25:09.993Z,12.40
2017-07-14T23:27:37.632Z,12.50
2017-07-14T23:30:05.155Z,12.60
2017-07-14T23:32:32.699Z,12.70
2017-07-14T23:35:01.027Z,12.70
2017-07-14T23:37:28.559Z,12.60
2017-07-14T23:39:56.081Z,12.60
2017-07-14T23:42:23.715Z,12.60
2017-07-14T23:44:51.361Z,12.50
2017-07-14T23:47:18.894Z,12.50
2017-07-14T23:49:46.483Z,12.50
2017-07-14T23:52:14.007Z,12.60
2017-07-14T23:54:42.419Z,12.70
2017-07-14T23:57:09.979Z,12.70
2017-07-14T23:59:37.547Z,12.70
